Time;durP1;ratioP1;P1;durP2;ratioP2;P2;SDS_P1;SDS_P2;PMS_P1;PMS_P2;Temp;Humidity;BMP_temperature;BMP_pressure;BME280_temperature;BME280_humidity;BME280_pressure;Samples;Min_cycle;Max_cycle;Signal;HPM_P1;HPM_P2
2022/08/27 00:00:42;;;;;;;1.70;1.20;;;;;;;;;;5035854;28;20203;-64
2022/08/27 00:03:12;;;;;;;3.97;1.53;;;;;;;;;;5073183;28;20182;-64
2022/08/27 00:05:43;;;;;;;2.60;1.37;;;;;;;;;;5078533;28;20213;-64
2022/08/27 00:08:16;;;;;;;2.43;1.40;;;;;;;;;;5071626;28;20308;-64
2022/08/27 00:10:52;;;;;;;3.13;1.40;;;;;;;;;;5066576;28;20544;-64
2022/08/27 00:13:20;;;;;;;2.00;1.40;;;;;;;;;;5046221;28;20240;-64
2022/08/27 00:15:51;;;;;;;1.60;1.17;;;;;;;;;;5052948;28;20194;-64
2022/08/27 00:18:21;;;;;;;2.10;1.57;;;;;;;;;;5070631;28;20189;-64
2022/08/27 00:20:50;;;;;;;1.63;1.13;;;;;;;;;;5060531;28;20217;-64
2022/08/27 00:23:26;;;;;;;1.93;1.10;;;;;;;;;;5054547;28;20223;-64
2022/08/27 00:26:01;;;;;;;1.43;1.20;;;;;;;;;;5059806;28;20197;-64
2022/08/27 00:28:30;;;;;;;3.90;1.40;;;;;;;;;;5053647;28;20205;-64
2022/08/27 00:31:00;;;;;;;3.63;1.27;;;;;;;;;;5060031;28;20201;-64
2022/08/27 00:33:36;;;;;;;1.77;1.20;;;;;;;;;;5064387;28;20251;-65
2022/08/27 00:36:07;;;;;;;1.20;1.10;;;;;;;;;;5075365;28;20618;-64
2022/08/27 00:38:40;;;;;;;2.33;1.43;;;;;;;;;;5068820;28;20198;-64
2022/08/27 00:41:12;;;;;;;2.60;1.47;;;;;;;;;;5071331;28;20190;-64
2022/08/27 00:43:53;;;;;;;1.90;1.50;;;;;;;;;;5074571;28;20291;-64
2022/08/27 00:46:30;;;;;;;2.00;1.17;;;;;;;;;;5066708;28;20193;-64
2022/08/27 00:49:15;;;;;;;2.80;1.37;;;;;;;;;;5073360;28;20220;-65
2022/08/27 00:51:49;;;;;;;1.43;1.20;;;;;;;;;;5073428;28;20189;-65
2022/08/27 00:54:20;;;;;;;2.33;1.50;;;;;;;;;;5041767;28;20197;-64
2022/08/27 00:56:51;;;;;;;2.33;1.70;;;;;;;;;;5047728;28;20252;-64
2022/08/27 00:59:22;;;;;;;1.50;1.27;;;;;;;;;;5071788;28;20740;-65
2022/08/27 01:04:44;;;;;;;1.90;1.50;;;;;;;;;;5063770;28;20229;-64
2022/08/27 01:07:26;;;;;;;2.53;1.10;;;;;;;;;;5038129;28;20264;-64
2022/08/27 01:10:01;;;;;;;2.10;1.17;;;;;;;;;;5069727;28;20589;-64
2022/08/27 01:12:30;;;;;;;2.27;1.53;;;;;;;;;;5071098;28;20194;-64
2022/08/27 01:15:03;;;;;;;1.70;1.37;;;;;;;;;;5066482;28;20243;-64
2022/08/27 01:17:37;;;;;;;2.73;1.40;;;;;;;;;;5054892;28;20193;-64
2022/08/27 01:20:16;;;;;;;3.30;1.43;;;;;;;;;;5075374;28;20647;-64
2022/08/27 01:23:08;;;;;;;2.37;1.50;;;;;;;;;;5076520;28;20250;-64
2022/08/27 01:25:44;;;;;;;2.40;1.30;;;;;;;;;;5054694;28;20198;-65
2022/08/27 01:28:21;;;;;;;2.43;1.10;;;;;;;;;;5078357;28;20297;-64
2022/08/27 01:31:05;;;;;;;2.40;1.50;;;;;;;;;;5042023;28;20287;-64
2022/08/27 01:33:34;;;;;;;2.40;1.40;;;;;;;;;;5064217;28;20860;-65
2022/08/27 01:36:04;;;;;;;2.37;1.50;;;;;;;;;;5069131;28;20638;-64
2022/08/27 01:38:35;;;;;;;3.17;1.50;;;;;;;;;;5079787;28;20240;-64
2022/08/27 01:41:08;;;;;;;2.37;1.43;;;;;;;;;;5068269;28;20230;-64
2022/08/27 01:43:47;;;;;;;1.80;1.60;;;;;;;;;;5063493;28;20217;-64
2022/08/27 01:46:22;;;;;;;2.73;1.43;;;;;;;;;;5070461;28;20607;-65
2022/08/27 01:48:56;;;;;;;2.17;1.43;;;;;;;;;;5063226;28;20272;-64
2022/08/27 01:51:28;;;;;;;1.67;1.20;;;;;;;;;;5059008;28;20209;-64
2022/08/27 01:53:58;;;;;;;2.27;1.40;;;;;;;;;;5073217;28;20185;-65
2022/08/27 01:56:29;;;;;;;1.77;1.37;;;;;;;;;;5065542;28;20213;-64
2022/08/27 01:59:01;;;;;;;2.70;1.50;;;;;;;;;;5070839;28;20193;-64
2022/08/27 02:01:30;;;;;;;3.20;1.67;;;;;;;;;;5065541;28;20194;-64
2022/08/27 02:04:00;;;;;;;1.77;1.43;;;;;;;;;;5079679;28;20515;-64
2022/08/27 02:06:32;;;;;;;2.57;1.60;;;;;;;;;;5070934;28;20182;-64
2022/08/27 02:09:02;;;;;;;3.53;1.47;;;;;;;;;;5077152;28;20217;-64
2022/08/27 02:11:35;;;;;;;2.27;1.50;;;;;;;;;;5070897;28;20193;-64
2022/08/27 02:14:11;;;;;;;1.73;1.40;;;;;;;;;;5058787;28;20186;-65
2022/08/27 02:16:45;;;;;;;2.93;1.50;;;;;;;;;;5074330;28;20635;-64
2022/08/27 02:19:21;;;;;;;1.83;1.30;;;;;;;;;;5076325;28;20213;-64
2022/08/27 02:21:54;;;;;;;2.03;1.33;;;;;;;;;;5052057;28;20194;-64
2022/08/27 02:24:25;;;;;;;3.90;1.60;;;;;;;;;;5078615;28;20205;-64
2022/08/27 02:26:55;;;;;;;2.00;1.33;;;;;;;;;;5069736;28;20690;-64
2022/08/27 02:29:26;;;;;;;2.07;1.40;;;;;;;;;;5053650;28;20228;-64
2022/08/27 02:31:58;;;;;;;3.97;2.10;;;;;;;;;;5073512;28;20585;-64
2022/08/27 02:34:29;;;;;;;2.90;1.47;;;;;;;;;;5069145;28;20537;-64
2022/08/27 02:36:58;;;;;;;2.27;1.43;;;;;;;;;;5081275;28;20565;-64
2022/08/27 02:39:31;;;;;;;3.47;1.60;;;;;;;;;;5063023;28;20272;-64
2022/08/27 02:42:04;;;;;;;2.23;1.73;;;;;;;;;;5063375;28;20692;-64
2022/08/27 02:44:35;;;;;;;1.77;1.30;;;;;;;;;;5063780;28;20210;-64
2022/08/27 02:47:15;;;;;;;2.20;1.60;;;;;;;;;;5075562;28;20503;-64
2022/08/27 02:49:48;;;;;;;2.47;1.27;;;;;;;;;;5075429;28;20224;-64
2022/08/27 02:52:19;;;;;;;3.80;1.60;;;;;;;;;;5067881;28;20208;-64
2022/08/27 02:54:52;;;;;;;2.47;1.37;;;;;;;;;;5068774;28;20764;-64
2022/08/27 02:57:23;;;;;;;2.80;1.63;;;;;;;;;;5068469;28;20209;-64
2022/08/27 02:59:51;;;;;;;2.30;1.40;;;;;;;;;;5052678;28;20659;-64
2022/08/27 03:02:20;;;;;;;2.47;1.40;;;;;;;;;;5050782;28;20194;-64
2022/08/27 03:04:50;;;;;;;2.93;1.47;;;;;;;;;;5047643;28;20832;-64
2022/08/27 03:07:23;;;;;;;2.43;1.40;;;;;;;;;;5063677;28;20210;-65
2022/08/27 03:09:53;;;;;;;2.33;1.40;;;;;;;;;;5044479;28;20214;-64
2022/08/27 03:12:25;;;;;;;1.70;1.60;;;;;;;;;;5032655;28;20191;-64
2022/08/27 03:14:55;;;;;;;3.10;1.77;;;;;;;;;;5036933;28;20203;-64
2022/08/27 03:20:13;;;;;;;2.13;1.40;;;;;;;;;;5043831;28;20690;-64
2022/08/27 03:22:41;;;;;;;1.87;1.40;;;;;;;;;;5041305;28;20202;-64
2022/08/27 03:25:11;;;;;;;2.77;1.70;;;;;;;;;;5032251;28;20195;-64
2022/08/27 03:27:40;;;;;;;4.17;2.03;;;;;;;;;;5044626;28;20198;-64
2022/08/27 03:30:12;;;;;;;2.50;1.60;;;;;;;;;;5029206;28;20238;-64
2022/08/27 03:32:52;;;;;;;3.47;1.43;;;;;;;;;;5008716;28;20217;-64
2022/08/27 03:35:22;;;;;;;3.47;1.80;;;;;;;;;;5045389;28;20229;-64
2022/08/27 03:37:55;;;;;;;2.97;1.80;;;;;;;;;;5035582;28;20195;-64
2022/08/27 03:40:28;;;;;;;2.90;1.40;;;;;;;;;;5045112;28;20241;-64
2022/08/27 03:42:58;;;;;;;2.53;1.40;;;;;;;;;;5039044;28;25062;-65
2022/08/27 03:45:32;;;;;;;2.83;1.77;;;;;;;;;;5042016;28;20194;-64
2022/08/27 03:48:27;;;;;;;4.27;1.80;;;;;;;;;;5046892;28;20194;-64
2022/08/27 03:50:57;;;;;;;3.10;1.57;;;;;;;;;;5044435;28;20213;-64
2022/08/27 03:53:28;;;;;;;2.53;1.47;;;;;;;;;;5043725;28;20632;-64
2022/08/27 03:56:07;;;;;;;2.37;1.90;;;;;;;;;;5042010;28;20220;-64
2022/08/27 03:58:38;;;;;;;2.30;1.63;;;;;;;;;;5038694;28;20214;-64
2022/08/27 04:01:09;;;;;;;2.37;1.70;;;;;;;;;;5039012;28;20195;-64
2022/08/27 04:03:41;;;;;;;3.33;1.67;;;;;;;;;;5029584;28;20278;-64
2022/08/27 04:06:10;;;;;;;2.27;1.37;;;;;;;;;;5046613;28;20202;-64
2022/08/27 04:08:59;;;;;;;3.67;1.80;;;;;;;;;;5052154;28;20238;-64
2022/08/27 04:11:34;;;;;;;2.57;1.60;;;;;;;;;;5072763;28;20267;-64
2022/08/27 04:14:06;;;;;;;4.20;2.17;;;;;;;;;;5076915;28;20186;-64
2022/08/27 04:16:55;;;;;;;3.00;1.87;;;;;;;;;;5048171;28;20631;-64
2022/08/27 04:19:29;;;;;;;3.00;1.90;;;;;;;;;;5049916;28;20317;-64
2022/08/27 04:22:01;;;;;;;4.57;1.70;;;;;;;;;;5069467;28;20181;-64
2022/08/27 04:24:38;;;;;;;4.47;1.60;;;;;;;;;;5050132;28;20197;-64
2022/08/27 04:27:10;;;;;;;2.93;1.63;;;;;;;;;;5069777;28;20189;-64
2022/08/27 04:29:41;;;;;;;3.60;1.73;;;;;;;;;;5049488;28;20221;-64
2022/08/27 04:32:16;;;;;;;5.17;1.77;;;;;;;;;;5064788;28;20209;-65
2022/08/27 04:34:48;;;;;;;2.80;1.53;;;;;;;;;;5069948;28;20279;-65
2022/08/27 04:37:21;;;;;;;3.30;1.53;;;;;;;;;;5058879;28;20193;-62
2022/08/27 04:39:53;;;;;;;1.80;1.40;;;;;;;;;;5067728;28;20205;-62
2022/08/27 04:42:24;;;;;;;3.20;1.77;;;;;;;;;;5040977;28;20220;-64
2022/08/27 04:44:53;;;;;;;2.50;1.50;;;;;;;;;;5065865;28;20221;-65
2022/08/27 04:47:37;;;;;;;2.00;1.80;;;;;;;;;;5056070;28;20273;-62
2022/08/27 04:50:05;;;;;;;3.10;1.60;;;;;;;;;;5059777;28;20231;-62
2022/08/27 04:52:37;;;;;;;2.60;1.57;;;;;;;;;;5069121;28;20936;-62
2022/08/27 04:55:10;;;;;;;2.23;1.70;;;;;;;;;;5061852;28;20225;-62
2022/08/27 04:57:42;;;;;;;3.13;1.50;;;;;;;;;;5069381;28;20194;-62
2022/08/27 05:00:16;;;;;;;2.90;1.83;;;;;;;;;;5072960;28;20200;-62
2022/08/27 05:02:46;;;;;;;2.80;1.60;;;;;;;;;;5067731;28;20208;-62
2022/08/27 05:05:17;;;;;;;2.60;2.00;;;;;;;;;;5046918;28;20210;-62
2022/08/27 05:07:48;;;;;;;4.20;1.67;;;;;;;;;;5061087;28;20246;-62
2022/08/27 05:10:21;;;;;;;2.50;1.50;;;;;;;;;;5046832;28;20211;-62
2022/08/27 05:12:58;;;;;;;2.63;1.83;;;;;;;;;;5055559;28;20198;-62
2022/08/27 05:15:27;;;;;;;3.60;1.70;;;;;;;;;;5054951;28;20206;-62
2022/08/27 05:17:59;;;;;;;2.03;1.60;;;;;;;;;;5051441;28;20237;-62
2022/08/27 05:20:34;;;;;;;1.80;1.50;;;;;;;;;;5051392;28;20285;-64
2022/08/27 05:23:02;;;;;;;3.10;1.77;;;;;;;;;;5026005;28;20202;-63
2022/08/27 05:25:32;;;;;;;4.13;1.70;;;;;;;;;;5046422;28;20215;-62
2022/08/27 05:28:02;;;;;;;2.13;1.30;;;;;;;;;;5016620;28;20801;-62
2022/08/27 05:30:43;;;;;;;2.10;1.50;;;;;;;;;;5011847;28;20321;-64
2022/08/27 05:33:29;;;;;;;2.57;1.70;;;;;;;;;;5033753;28;20202;-64
2022/08/27 05:36:00;;;;;;;2.20;1.40;;;;;;;;;;5039398;28;20208;-65
2022/08/27 05:38:30;;;;;;;2.60;1.60;;;;;;;;;;5043867;28;20226;-65
2022/08/27 05:41:11;;;;;;;3.67;1.50;;;;;;;;;;5043581;28;20639;-65
2022/08/27 05:43:45;;;;;;;2.63;1.60;;;;;;;;;;5044338;28;20216;-65
2022/08/27 05:46:21;;;;;;;2.50;1.70;;;;;;;;;;5033794;28;20210;-65
2022/08/27 05:48:55;;;;;;;2.20;1.30;;;;;;;;;;5043881;28;20186;-65
2022/08/27 05:51:34;;;;;;;2.67;1.50;;;;;;;;;;5026099;28;20688;-62
2022/08/27 05:54:07;;;;;;;3.47;1.80;;;;;;;;;;5026140;28;20190;-61
2022/08/27 05:56:37;;;;;;;7.20;1.70;;;;;;;;;;5035235;28;20211;-63
2022/08/27 06:02:10;;;;;;;4.80;2.07;;;;;;;;;;5039975;28;20256;-63
2022/08/27 06:04:43;;;;;;;2.57;1.40;;;;;;;;;;5043686;28;20198;-64
2022/08/27 06:07:15;;;;;;;3.30;1.73;;;;;;;;;;5044257;28;20536;-63
2022/08/27 06:09:57;;;;;;;4.10;1.83;;;;;;;;;;5036074;28;20628;-63
2022/08/27 06:12:36;;;;;;;2.40;1.37;;;;;;;;;;5042651;28;20631;-61
2022/08/27 06:15:04;;;;;;;2.13;1.63;;;;;;;;;;5055897;28;20201;-61
2022/08/27 06:17:40;;;;;;;2.60;1.73;;;;;;;;;;5047800;28;20220;-61
2022/08/27 06:20:11;;;;;;;5.57;1.87;;;;;;;;;;5044907;28;20260;-61
2022/08/27 06:22:39;;;;;;;3.13;1.73;;;;;;;;;;5046986;28;20658;-61
2022/08/27 06:25:09;;;;;;;3.70;2.03;;;;;;;;;;5031232;28;20198;-61
2022/08/27 06:27:42;;;;;;;5.03;2.10;;;;;;;;;;5054601;28;20209;-60
2022/08/27 06:30:36;;;;;;;6.50;2.10;;;;;;;;;;5054646;28;20229;-63
2022/08/27 06:33:08;;;;;;;2.53;1.90;;;;;;;;;;5053277;28;20181;-63
2022/08/27 06:35:40;;;;;;;3.03;1.80;;;;;;;;;;5058473;28;20201;-64
2022/08/27 06:38:15;;;;;;;6.17;2.23;;;;;;;;;;5057947;28;20476;-64
2022/08/27 06:40:46;;;;;;;5.10;2.37;;;;;;;;;;5046721;28;20264;-61
2022/08/27 06:43:17;;;;;;;3.30;2.07;;;;;;;;;;5030192;28;20201;-61
2022/08/27 06:45:52;;;;;;;3.27;1.90;;;;;;;;;;5032225;28;20198;-61
2022/08/27 06:48:23;;;;;;;4.00;2.30;;;;;;;;;;5048641;28;20205;-61
2022/08/27 06:50:54;;;;;;;2.53;1.97;;;;;;;;;;5033240;28;20209;-61
2022/08/27 06:53:26;;;;;;;3.27;2.20;;;;;;;;;;5052531;28;20193;-60
2022/08/27 06:55:57;;;;;;;3.47;2.13;;;;;;;;;;5049509;28;20237;-61
2022/08/27 06:58:29;;;;;;;3.40;2.10;;;;;;;;;;5055350;28;20194;-61
2022/08/27 07:01:01;;;;;;;3.43;2.13;;;;;;;;;;5032902;28;20206;-61
2022/08/27 07:03:34;;;;;;;3.33;2.30;;;;;;;;;;5032763;28;20210;-61
2022/08/27 07:06:04;;;;;;;2.60;2.00;;;;;;;;;;5037995;28;20764;-66
2022/08/27 07:08:32;;;;;;;6.00;2.47;;;;;;;;;;5053383;28;20245;-64
2022/08/27 07:11:00;;;;;;;4.53;2.53;;;;;;;;;;5066915;28;20740;-63
2022/08/27 07:13:31;;;;;;;5.83;2.37;;;;;;;;;;5067744;28;20210;-63
2022/08/27 07:16:09;;;;;;;5.13;2.60;;;;;;;;;;5067745;28;20198;-62
2022/08/27 07:18:43;;;;;;;4.30;2.80;;;;;;;;;;5043758;28;20224;-63
2022/08/27 07:21:13;;;;;;;3.50;2.10;;;;;;;;;;5067375;28;20201;-61
2022/08/27 07:23:42;;;;;;;3.37;2.20;;;;;;;;;;5053241;28;20200;-61
2022/08/27 07:26:15;;;;;;;5.23;2.53;;;;;;;;;;5069045;28;20205;-64
2022/08/27 07:28:47;;;;;;;4.50;2.20;;;;;;;;;;5047785;28;20205;-64
2022/08/27 07:31:18;;;;;;;3.10;2.43;;;;;;;;;;5065095;28;20244;-63
2022/08/27 07:33:51;;;;;;;4.37;2.30;;;;;;;;;;5069606;28;20190;-62
2022/08/27 07:36:23;;;;;;;4.87;2.50;;;;;;;;;;5066917;28;20222;-61
2022/08/27 07:38:53;;;;;;;4.70;2.10;;;;;;;;;;5064924;28;20189;-61
2022/08/27 07:41:30;;;;;;;4.87;2.50;;;;;;;;;;5067112;28;20199;-61
2022/08/27 07:46:57;;;;;;;4.27;2.53;;;;;;;;;;5052030;28;20247;-64
2022/08/27 07:49:27;;;;;;;4.50;2.63;;;;;;;;;;5049511;28;20220;-64
2022/08/27 07:51:59;;;;;;;3.83;2.60;;;;;;;;;;5053478;28;20259;-61
2022/08/27 07:54:31;;;;;;;3.30;2.43;;;;;;;;;;5067974;28;20205;-61
2022/08/27 07:57:04;;;;;;;2.97;2.30;;;;;;;;;;5046112;28;20202;-61
2022/08/27 07:59:39;;;;;;;3.90;2.70;;;;;;;;;;5067362;28;20621;-61
2022/08/27 08:02:14;;;;;;;3.57;2.60;;;;;;;;;;5070595;28;20201;-64
2022/08/27 08:04:43;;;;;;;4.90;2.90;;;;;;;;;;5068258;28;20219;-64
2022/08/27 08:07:12;;;;;;;3.97;2.67;;;;;;;;;;5045935;28;20225;-64
2022/08/27 08:09:44;;;;;;;4.60;2.80;;;;;;;;;;5042089;28;20234;-64
2022/08/27 08:12:13;;;;;;;4.60;2.40;;;;;;;;;;5047091;28;20241;-61
2022/08/27 08:14:43;;;;;;;5.80;2.43;;;;;;;;;;5047415;28;20252;-61
2022/08/27 08:17:13;;;;;;;10.07;2.40;;;;;;;;;;5035672;28;20710;-64
2022/08/27 08:19:43;;;;;;;4.97;2.90;;;;;;;;;;5044522;28;20699;-64
2022/08/27 08:22:34;;;;;;;4.67;2.20;;;;;;;;;;5047736;28;20260;-64
2022/08/27 08:25:23;;;;;;;4.90;2.50;;;;;;;;;;5038640;28;20246;-64
2022/08/27 08:27:52;;;;;;;5.40;2.40;;;;;;;;;;5029567;28;20229;-61
2022/08/27 08:30:20;;;;;;;5.57;2.53;;;;;;;;;;5013420;28;20190;-61
2022/08/27 08:32:54;;;;;;;3.70;2.40;;;;;;;;;;5041905;28;20228;-60
2022/08/27 08:35:39;;;;;;;5.67;2.73;;;;;;;;;;5049740;28;20201;-62
2022/08/27 08:38:09;;;;;;;3.60;2.30;;;;;;;;;;5032900;28;20206;-61
2022/08/27 08:40:42;;;;;;;5.83;2.47;;;;;;;;;;5036052;28;20207;-61
2022/08/27 08:43:34;;;;;;;6.93;2.70;;;;;;;;;;5019796;28;20650;-61
2022/08/27 08:46:21;;;;;;;8.70;3.57;;;;;;;;;;5029504;28;20188;-61
2022/08/27 08:48:58;;;;;;;9.80;3.30;;;;;;;;;;5029959;28;20226;-61
2022/08/27 08:51:42;;;;;;;12.57;3.67;;;;;;;;;;5033370;28;20216;-58
2022/08/27 08:54:20;;;;;;;6.83;3.23;;;;;;;;;;5034442;28;20729;-60
2022/08/27 08:56:55;;;;;;;9.93;3.73;;;;;;;;;;5017802;28;20214;-63
2022/08/27 08:59:34;;;;;;;9.03;3.70;;;;;;;;;;5050167;28;20236;-63
2022/08/27 09:02:13;;;;;;;6.87;2.90;;;;;;;;;;5048179;28;20198;-63
2022/08/27 09:04:43;;;;;;;6.07;2.87;;;;;;;;;;5044305;28;20190;-63
2022/08/27 09:07:39;;;;;;;6.43;3.20;;;;;;;;;;5032828;28;20208;-63
2022/08/27 09:10:27;;;;;;;9.50;3.40;;;;;;;;;;5057587;28;20199;-63
2022/08/27 09:13:02;;;;;;;9.10;3.17;;;;;;;;;;5070335;28;20226;-62
2022/08/27 09:15:35;;;;;;;7.20;3.17;;;;;;;;;;5065650;28;20189;-59
2022/08/27 09:18:07;;;;;;;6.60;2.60;;;;;;;;;;5066568;28;20202;-59
2022/08/27 09:20:51;;;;;;;5.87;2.53;;;;;;;;;;5042587;28;20277;-62
2022/08/27 09:23:32;;;;;;;4.97;2.70;;;;;;;;;;5057781;28;20200;-63
2022/08/27 09:26:01;;;;;;;6.53;2.70;;;;;;;;;;5057068;28;20193;-59
2022/08/27 09:31:22;;;;;;;4.50;2.60;;;;;;;;;;5034782;28;20218;-59
2022/08/27 09:33:52;;;;;;;4.10;2.20;;;;;;;;;;5068792;28;20369;-59
2022/08/27 09:36:28;;;;;;;5.43;2.90;;;;;;;;;;5070555;28;20217;-59
2022/08/27 09:39:03;;;;;;;3.20;2.47;;;;;;;;;;5065395;28;20661;-60
2022/08/27 09:41:51;;;;;;;4.53;2.43;;;;;;;;;;5053652;28;20200;-59
2022/08/27 09:44:21;;;;;;;5.27;2.60;;;;;;;;;;5058668;28;20230;-59
2022/08/27 09:47:03;;;;;;;3.50;2.10;;;;;;;;;;5058330;28;20194;-59
2022/08/27 09:49:35;;;;;;;4.43;2.30;;;;;;;;;;5070705;28;20197;-59
2022/08/27 09:52:05;;;;;;;3.03;2.00;;;;;;;;;;5070149;28;20280;-62
2022/08/27 09:54:40;;;;;;;4.27;2.33;;;;;;;;;;5061694;28;20640;-62
2022/08/27 09:57:13;;;;;;;3.37;2.30;;;;;;;;;;5063059;28;20193;-62
2022/08/27 10:00:07;;;;;;;3.90;2.23;;;;;;;;;;5042441;28;20194;-62
2022/08/27 10:02:51;;;;;;;3.23;1.87;;;;;;;;;;5061735;28;20206;-59
2022/08/27 10:05:28;;;;;;;3.23;2.10;;;;;;;;;;5060807;28;20190;-62
2022/08/27 10:08:17;;;;;;;2.87;2.10;;;;;;;;;;5051664;28;20229;-62
2022/08/27 10:10:52;;;;;;;3.73;1.93;;;;;;;;;;5058621;28;20701;-63
2022/08/27 10:13:30;;;;;;;2.80;2.20;;;;;;;;;;5067045;28;20186;-62
2022/08/27 10:16:16;;;;;;;3.47;1.83;;;;;;;;;;5064156;28;20210;-62
2022/08/27 10:19:02;;;;;;;2.70;2.07;;;;;;;;;;5056488;28;20331;-63
2022/08/27 10:21:46;;;;;;;5.10;1.80;;;;;;;;;;5066440;28;20872;-59
2022/08/27 10:24:19;;;;;;;1.87;1.60;;;;;;;;;;5069397;28;20219;-59
2022/08/27 10:26:58;;;;;;;3.03;1.90;;;;;;;;;;5061299;28;20209;-62
2022/08/27 10:29:46;;;;;;;1.90;1.60;;;;;;;;;;5046638;28;20201;-62
2022/08/27 10:32:40;;;;;;;2.53;1.80;;;;;;;;;;5048817;28;20222;-59
2022/08/27 10:35:17;;;;;;;1.97;1.70;;;;;;;;;;5061448;28;20631;-60
2022/08/27 10:37:54;;;;;;;2.43;1.50;;;;;;;;;;5040361;28;20189;-60
2022/08/27 10:40:41;;;;;;;1.83;1.40;;;;;;;;;;5060246;28;20244;-63
2022/08/27 10:43:31;;;;;;;2.37;1.43;;;;;;;;;;5049972;28;20259;-63
2022/08/27 10:46:28;;;;;;;1.60;1.33;;;;;;;;;;5070110;28;20693;-63
2022/08/27 10:49:18;;;;;;;2.37;1.60;;;;;;;;;;5064398;28;20209;-63
2022/08/27 10:51:57;;;;;;;1.97;1.57;;;;;;;;;;5052217;28;20210;-63
2022/08/27 10:54:46;;;;;;;2.00;1.73;;;;;;;;;;5045544;28;20193;-63
2022/08/27 10:57:18;;;;;;;1.60;1.40;;;;;;;;;;5049351;28;20199;-63
2022/08/27 11:00:30;;;;;;;1.80;1.70;;;;;;;;;;5059025;28;20204;-63
2022/08/27 11:03:08;;;;;;;2.13;1.57;;;;;;;;;;5067469;28;20694;-64
2022/08/27 11:05:45;;;;;;;1.63;1.20;;;;;;;;;;5049101;28;20229;-63
2022/08/27 11:08:32;;;;;;;1.70;1.30;;;;;;;;;;5055386;28;20236;-63
2022/08/27 11:11:14;;;;;;;1.80;1.60;;;;;;;;;;5034681;28;20534;-60
2022/08/27 11:13:57;;;;;;;1.20;1.10;;;;;;;;;;5046476;28;20285;-60
2022/08/27 11:17:01;;;;;;;1.60;1.50;;;;;;;;;;5053561;28;20208;-63
2022/08/27 11:19:51;;;;;;;1.40;1.30;;;;;;;;;;5060649;28;20241;-63
2022/08/27 11:22:36;;;;;;;1.70;1.40;;;;;;;;;;5059148;28;20824;-63
2022/08/27 11:25:22;;;;;;;1.90;1.50;;;;;;;;;;5065484;28;20200;-63
2022/08/27 11:27:54;;;;;;;1.87;1.60;;;;;;;;;;5062867;28;20783;-63
2022/08/27 11:30:31;;;;;;;1.70;1.50;;;;;;;;;;5054394;28;20194;-60
2022/08/27 11:33:09;;;;;;;1.57;1.33;;;;;;;;;;5059700;28;20227;-60
2022/08/27 11:35:58;;;;;;;1.50;1.37;;;;;;;;;;5062908;28;20623;-60
2022/08/27 11:38:47;;;;;;;1.40;1.30;;;;;;;;;;5071205;28;20203;-59
2022/08/27 11:41:44;;;;;;;1.27;1.17;;;;;;;;;;5072091;28;20539;-60
2022/08/27 11:44:13;;;;;;;2.93;1.40;;;;;;;;;;5058846;28;20623;-59
2022/08/27 11:46:47;;;;;;;1.70;1.20;;;;;;;;;;5039554;28;20193;-60
2022/08/27 11:49:42;;;;;;;2.13;1.53;;;;;;;;;;5041382;28;20993;-60
2022/08/27 11:52:30;;;;;;;1.77;1.50;;;;;;;;;;5046383;28;20249;-58
2022/08/27 11:55:14;;;;;;;1.70;1.50;;;;;;;;;;5044981;28;20858;-57
2022/08/27 11:57:50;;;;;;;2.40;1.60;;;;;;;;;;5048527;28;20825;-58
2022/08/27 12:00:29;;;;;;;1.73;1.40;;;;;;;;;;5057987;28;20584;-58
2022/08/27 12:03:03;;;;;;;2.37;1.43;;;;;;;;;;5059234;28;20197;-58
2022/08/27 12:05:39;;;;;;;2.37;1.50;;;;;;;;;;5055521;28;20680;-61
2022/08/27 12:08:26;;;;;;;1.50;1.40;;;;;;;;;;5054446;28;20723;-61
2022/08/27 12:11:10;;;;;;;1.97;1.40;;;;;;;;;;5052039;28;20198;-58
2022/08/27 12:14:03;;;;;;;1.50;1.40;;;;;;;;;;5049194;28;20213;-60
2022/08/27 12:16:54;;;;;;;1.83;1.40;;;;;;;;;;5055879;28;20194;-60
2022/08/27 12:19:42;;;;;;;1.73;1.50;;;;;;;;;;5058002;28;20216;-58
2022/08/27 12:22:31;;;;;;;1.80;1.33;;;;;;;;;;5057304;28;20198;-59
2022/08/27 12:25:08;;;;;;;1.37;1.20;;;;;;;;;;5062701;28;20639;-58
2022/08/27 12:27:38;;;;;;;1.93;1.50;;;;;;;;;;5057725;28;20224;-61
2022/08/27 12:30:23;;;;;;;1.40;1.30;;;;;;;;;;5067090;28;20201;-62
2022/08/27 12:32:53;;;;;;;2.07;1.60;;;;;;;;;;5061987;28;20264;-63
2022/08/27 12:35:40;;;;;;;1.97;1.37;;;;;;;;;;5048228;28;20654;-61
2022/08/27 12:38:19;;;;;;;1.60;1.33;;;;;;;;;;5067734;28;20202;-62
2022/08/27 12:40:53;;;;;;;1.77;1.40;;;;;;;;;;5046146;28;20197;-60
2022/08/27 12:43:33;;;;;;;1.60;1.47;;;;;;;;;;5061968;28;20206;-60
2022/08/27 12:46:04;;;;;;;1.70;1.40;;;;;;;;;;5062538;28;20194;-60
2022/08/27 12:48:55;;;;;;;1.30;1.20;;;;;;;;;;5063714;28;20252;-60
2022/08/27 12:51:37;;;;;;;1.67;1.50;;;;;;;;;;5063784;28;20226;-60
2022/08/27 12:54:30;;;;;;;1.93;1.23;;;;;;;;;;5063573;28;20670;-60
2022/08/27 12:57:16;;;;;;;1.40;1.20;;;;;;;;;;5060834;28;20209;-58
2022/08/27 12:59:51;;;;;;;1.57;1.20;;;;;;;;;;5063662;28;20514;-60
2022/08/27 13:02:30;;;;;;;1.83;1.17;;;;;;;;;;5063297;28;20580;-60
2022/08/27 13:05:05;;;;;;;1.73;1.30;;;;;;;;;;5048612;28;20727;-60
2022/08/27 13:07:43;;;;;;;1.40;1.20;;;;;;;;;;5049659;28;20241;-63
2022/08/27 13:10:26;;;;;;;2.13;1.43;;;;;;;;;;5047664;28;20196;-60
2022/08/27 13:13:06;;;;;;;1.37;1.20;;;;;;;;;;5064116;28;20209;-59
2022/08/27 13:15:49;;;;;;;1.60;1.10;;;;;;;;;;5066702;28;20270;-60
2022/08/27 13:18:21;;;;;;;1.90;1.33;;;;;;;;;;5051962;28;20196;-59
2022/08/27 13:21:00;;;;;;;1.87;1.20;;;;;;;;;;5040608;28;20198;-63
2022/08/27 13:23:34;;;;;;;1.60;1.50;;;;;;;;;;5066830;28;20197;-63
2022/08/27 13:26:11;;;;;;;1.10;1.00;;;;;;;;;;5063637;28;20708;-63
2022/08/27 13:28:44;;;;;;;1.50;1.33;;;;;;;;;;5061473;28;20212;-63
2022/08/27 13:31:15;;;;;;;1.83;1.17;;;;;;;;;;5047320;28;20217;-60
2022/08/27 13:33:48;;;;;;;1.70;1.10;;;;;;;;;;5046007;28;20225;-61
2022/08/27 13:36:29;;;;;;;2.70;1.37;;;;;;;;;;5063305;28;20197;-61
2022/08/27 13:39:19;;;;;;;1.30;1.20;;;;;;;;;;5060460;28;20189;-61
2022/08/27 13:41:49;;;;;;;1.37;1.20;;;;;;;;;;5062268;28;20197;-58
2022/08/27 13:44:33;;;;;;;1.70;1.17;;;;;;;;;;5060621;28;20207;-58
2022/08/27 13:47:15;;;;;;;1.17;1.00;;;;;;;;;;5047008;28;20236;-58
2022/08/27 13:49:45;;;;;;;1.60;1.10;;;;;;;;;;5054681;28;20198;-60
2022/08/27 13:52:25;;;;;;;2.03;1.33;;;;;;;;;;5062832;28;20220;-62
2022/08/27 13:55:06;;;;;;;1.30;1.20;;;;;;;;;;5062581;28;20657;-63
2022/08/27 13:57:43;;;;;;;1.83;1.30;;;;;;;;;;5059654;28;20221;-62
2022/08/27 14:00:17;;;;;;;1.80;1.40;;;;;;;;;;5063030;28;20193;-63
2022/08/27 14:02:49;;;;;;;1.13;1.03;;;;;;;;;;5042250;28;20202;-63
2022/08/27 14:05:26;;;;;;;1.30;1.20;;;;;;;;;;5054864;28;20186;-63
2022/08/27 14:08:16;;;;;;;1.43;1.23;;;;;;;;;;5063967;28;20307;-63
2022/08/27 14:10:49;;;;;;;2.13;1.30;;;;;;;;;;5054408;28;20234;-59
2022/08/27 14:13:27;;;;;;;1.77;1.40;;;;;;;;;;5053277;28;20218;-60
2022/08/27 14:15:59;;;;;;;1.33;1.13;;;;;;;;;;5065755;28;20607;-63
2022/08/27 14:18:39;;;;;;;1.60;1.10;;;;;;;;;;5068062;28;20212;-62
2022/08/27 14:21:27;;;;;;;1.27;0.97;;;;;;;;;;5050022;28;20186;-63
2022/08/27 14:23:57;;;;;;;2.10;1.30;;;;;;;;;;5049889;28;20205;-63
2022/08/27 14:26:29;;;;;;;1.30;1.20;;;;;;;;;;5050961;28;20202;-60
2022/08/27 14:28:58;;;;;;;1.97;1.27;;;;;;;;;;5061161;28;20197;-60
2022/08/27 14:31:31;;;;;;;1.27;1.10;;;;;;;;;;5057224;28;20608;-60
2022/08/27 14:34:04;;;;;;;2.20;1.00;;;;;;;;;;5062987;28;20206;-60
2022/08/27 14:36:36;;;;;;;1.80;1.30;;;;;;;;;;5049889;28;20209;-60
2022/08/27 14:39:06;;;;;;;1.57;1.20;;;;;;;;;;5051930;28;20251;-60
2022/08/27 14:41:34;;;;;;;1.07;0.97;;;;;;;;;;5058635;28;20207;-60
2022/08/27 14:44:03;;;;;;;1.77;1.10;;;;;;;;;;5050740;28;20266;-60
2022/08/27 14:46:35;;;;;;;1.20;1.10;;;;;;;;;;5062464;28;20195;-63
2022/08/27 14:49:13;;;;;;;2.07;1.20;;;;;;;;;;5056467;28;20190;-63
2022/08/27 14:51:42;;;;;;;1.10;0.97;;;;;;;;;;5049702;28;20193;-59
2022/08/27 14:54:13;;;;;;;1.00;1.00;;;;;;;;;;5036188;28;20222;-59
2022/08/27 14:56:41;;;;;;;1.27;0.90;;;;;;;;;;5061441;28;20549;-62
2022/08/27 14:59:12;;;;;;;1.10;0.83;;;;;;;;;;5058991;28;20280;-62
2022/08/27 15:01:43;;;;;;;1.63;1.00;;;;;;;;;;5065987;28;20239;-59
2022/08/27 15:04:27;;;;;;;1.33;1.20;;;;;;;;;;5062447;28;20315;-59
2022/08/27 15:06:59;;;;;;;1.63;1.13;;;;;;;;;;5063599;28;20457;-62
2022/08/27 15:09:30;;;;;;;1.37;1.20;;;;;;;;;;5059915;28;20850;-62
2022/08/27 15:12:13;;;;;;;1.83;1.10;;;;;;;;;;5055634;28;20295;-59
2022/08/27 15:14:53;;;;;;;1.53;1.17;;;;;;;;;;5047690;28;20435;-59
2022/08/27 15:17:24;;;;;;;1.30;1.00;;;;;;;;;;5066443;28;20190;-59
2022/08/27 15:20:07;;;;;;;1.90;1.10;;;;;;;;;;5053923;28;20295;-58
2022/08/27 15:22:51;;;;;;;1.20;1.10;;;;;;;;;;5051905;28;20262;-58
2022/08/27 15:25:26;;;;;;;1.67;1.00;;;;;;;;;;5047331;28;20203;-61
2022/08/27 15:28:05;;;;;;;1.33;0.80;;;;;;;;;;5066209;28;20228;-64
2022/08/27 15:30:35;;;;;;;2.20;1.30;;;;;;;;;;5052019;28;20665;-61
2022/08/27 15:33:07;;;;;;;1.20;1.10;;;;;;;;;;5042908;28;20555;-61
2022/08/27 15:35:39;;;;;;;1.50;1.10;;;;;;;;;;5064827;28;20194;-63
2022/08/27 15:38:09;;;;;;;1.23;1.00;;;;;;;;;;5065924;28;20274;-63
2022/08/27 15:40:41;;;;;;;1.20;1.00;;;;;;;;;;5060894;28;20279;-63
2022/08/27 15:43:18;;;;;;;1.30;1.10;;;;;;;;;;5062860;28;20243;-63
2022/08/27 15:45:52;;;;;;;2.43;1.00;;;;;;;;;;5049831;28;20182;-63
2022/08/27 15:48:25;;;;;;;1.40;0.90;;;;;;;;;;5066694;28;20200;-63